Current Conditions
Partly Cloudy
Conditions



Pressure
1022.92 (hPa) - 30.21 (inHG)
Visibility

6.2 (miles) - 10.0 (km)
Temperature
-4  °C
Temperature
-6  °C
Dewpoint
86  %
 Humidity
Wind Speed
10  km/h
5  kts
6  mph
2.7  m/s
Wind Direction
N
45°
E
90°
135°
S
180°
225°
W
270°
315°
 110°

East South
East
Airport Data
LGTS
Thessaloniki Macedonia International Airport
Metar :LGTS 280520Z 11005KT 9999 FEW030 M04/M06 Q1023 NOSIG
Fri 28th January 07:20 am
Raw Metar Info
Raw METAR is the most common format in the world for the transmission of observational weather data. It is highly standardized through the International Civil Aviation Organization (ICAO), which allows it to be understood throughout most of the world.
API Info
Data Provided by
https://www.checkwx.com/weather/LGTS

Aviation Weather providing METAR, TAF, AIRMET, SIGMET and OUTLOOK Weather Reports
© Info
CSS/SVG/PHP scripts were developed by weather34.com for use in the weather34 template © 2015-2022

Guide Info provided by Metar-Wikipedia